• Join FlightAware (Why Join?)
  • Login
  • US Flag 
12:04PM EDT


 

Airport Tracker/Info


-or-


 

Live Flight TrackerFlight Track Log ✈ DAL1981 ✈ 23-Apr-2013 ✈ KALB - KATL

Flight Track Log - Related Links

Times and Time Zones

All times are in EDT time to prevent confusion due to time zone crossing. See the DAL1981 flight status page for this flight to view local times or setup timezone preferences in your user account.

Time Position Orientation Groundspeed Altitude Reporting Facility
EDT Latitude Longitude Course Direction KTS MPH feet Rate Location/Type
06:31AM 42.7672 -73.8061 180° South 152 175 1,700  Level Boston Center
06:32AM 42.8253 -73.8469 333° Northwest 264 304 4,200 3,180 Climbing Boston Center
06:33AM 42.8786 -73.9164 316° Northwest 284 327 8,000 3,360 Climbing Boston Center
06:34AM 42.4365 -74.2382 198° South  Level Estimated
06:34AM 42.8981 -74.0075 286° West 278 320 11,000  Level Boston Center
06:35AM 42.3581 -74.3466 200° South  Level Estimated
06:35AM 42.8714 -74.1286 253° West 289 333 13,000  Level Boston Center
06:36AM 42.2795 -74.4547 180° South  Level Estimated
06:36AM 42.7525 -74.1367 183° South 300 345 16,100  Level Boston Center
06:37AM 42.6464 -74.1194 173° South 339 390 17,800 1,980 Climbing Boston Center
06:38AM 42.5322 -74.0967 172° South 393 452 20,100 2,220 Climbing Boston Center
06:39AM 42.4178 -74.0769 173° South 416 479 22,300 1,920 Climbing Boston Center
06:40AM 42.3036 -74.0514 171° South 421 484 24,000 840 Climbing Boston Center
06:41AM 42.1889 -74.0428 177° South 421 484 24,000  Level Boston Center
06:42AM 42.0742 -74.0483 182° South 421 484 24,000  Level Boston Center
06:43AM 41.9622 -74.0119 166° South 413 475 24,000  Level Boston Center
06:44AM 41.8675 -73.9175 143° Southeast 404 465 24,000  Level Boston Center
06:45AM 41.7853 -73.8294 141° Southeast 410 472 24,000  Level Boston Center
06:47AM 41.6061 -73.7953 172° South 381 438 24,000  Level New York Center
06:48AM 41.5211 -73.8522 207° Southwest 367 422 24,000  Level New York Center
06:49AM 41.4217 -73.9167 206° Southwest 383 441 24,000  Level New York Center
06:50AM 41.3200 -73.9839 206° Southwest 394 453 24,000  Level New York Center
06:51AM 41.2203 -74.0481 206° Southwest 406 467 24,000  Level New York Center
06:52AM 41.1286 -74.1206 211° Southwest 411 473 24,000  Level New York Center
06:53AM 41.0544 -74.2353 229° Southwest 402 463 24,000  Level New York Center
06:54AM 40.9847 -74.3444 230° Southwest 402 463 24,000  Level New York Center
06:55AM 40.9144 -74.4589 231° Southwest 402 463 24,000  Level New York Center
06:56AM 40.8461 -74.5731 232° Southwest 402 463 24,000  Level New York Center
06:57AM 40.7758 -74.6842 230° Southwest 402 463 24,000  Level New York Center
06:58AM 40.7056 -74.7978 231° Southwest 402 463 24,000 540 Level New York Center
06:59AM 40.6347 -74.9114 231° Southwest 402 463 25,100 1,560 Climbing New York Center
07:00AM 40.5642 -75.0217 230° Southwest 402 463 27,200 1,380 Climbing New York Center
07:01AM 40.4978 -75.1322 232° Southwest 402 463 27,900 360 Climbing New York Center
07:02AM 40.4292 -75.2397 230° Southwest 397 457 28,000  Climbing New York Center
07:03AM 40.3514 -75.3628 230° Southwest 397 457 28,000  Level New York Center
07:04AM 40.2825 -75.4725 231° Southwest 403 464 28,000 60 Level New York Center
07:05AM 40.2153 -75.5847 232° Southwest 403 464 28,200 960 Climbing New York Center
07:06AM 40.1519 -75.7081 236° Southwest 408 470 30,000 1,860 Climbing New York Center
07:07AM 40.0947 -75.8261 238° Southwest 403 464 32,000 1,440 Climbing New York Center
07:08AM 40.0336 -75.9383 235° Southwest 396 456 33,000 960 Climbing New York Center
07:09AM 39.9764 -76.0533 237° Southwest 390 449 34,000 480 Climbing New York Center
07:10AM 39.9172 -76.1653 235° Southwest 385 443 34,000  Level New York Center
07:11AM 39.8622 -76.2692 235° Southwest 385 443 34,000  Level New York Center
07:12AM 39.7625 -76.4661 237° Southwest 380 437 34,000  Level Washington Center
07:13AM 39.6950 -76.5894 235° Southwest 392 451 34,000  Level Washington Center
07:14AM 39.6314 -76.7042 234° Southwest 397 457 34,000  Level Washington Center
07:15AM 39.5700 -76.8219 236° Southwest 403 464 34,000  Level Washington Center
07:16AM 39.5081 -76.9392 236° Southwest 403 464 34,000  Level Washington Center
07:17AM 39.4319 -77.0372 225° Southwest 398 458 34,000  Level Washington Center
07:18AM 39.3644 -77.1083 219° Southwest 392 451 34,000  Level Washington Center
07:19AM 39.2608 -77.2186 220° Southwest 397 457 34,000  Level Washington Center
07:20AM 39.1764 -77.3078 219° Southwest 402 463 34,000  Level Washington Center
07:21AM 39.0894 -77.3994 219° Southwest 402 463 34,000  Level Washington Center
07:22AM 39.0028 -77.4908 219° Southwest 407 468 34,000  Level Washington Center
07:23AM 38.9264 -77.5714 219° Southwest 407 468 34,000  Level Washington Center
07:24AM 38.8372 -77.6650 219° Southwest 407 468 34,000  Level Washington Center
07:25AM 38.7397 -77.7581 217° Southwest 421 484 34,000  Level Washington Center
07:26AM 38.6525 -77.8514 220° Southwest 426 490 34,000  Level Washington Center
07:27AM 38.5794 -77.9658 231° Southwest 419 482 34,000  Level Washington Center
07:28AM 38.5103 -78.0883 234° Southwest 419 482 34,000  Level Washington Center
07:29AM 38.4408 -78.2081 234° Southwest 430 495 34,000  Level Washington Center
07:30AM 38.3694 -78.3272 233° Southwest 430 495 34,000  Level Washington Center
07:31AM 38.2978 -78.4492 233° Southwest 430 495 34,000  Level Washington Center
07:32AM 38.2214 -78.5836 234° Southwest 424 488 34,000  Level Washington Center
07:33AM 38.1517 -78.6997 233° Southwest 424 488 34,000  Level Washington Center
07:34AM 38.0778 -78.8206 232° Southwest 429 494 34,000  Level Washington Center
07:35AM 38.0122 -78.9283 232° Southwest 429 494 34,000  Level Washington Center
07:36AM 37.9400 -79.0489 233° Southwest 429 494 34,000  Level Washington Center
07:37AM 37.8592 -79.1689 230° Southwest 435 501 34,000  Level Washington Center
07:38AM 37.7764 -79.2833 228° Southwest 441 507 34,000  Level Washington Center
07:39AM 37.6831 -79.4072 226° Southwest 446 513 34,000  Level Washington Center
07:40AM 37.6000 -79.5211 227° Southwest 451 519 34,000  Level Washington Center
07:41AM 37.5169 -79.6372 228° Southwest 451 519 34,000  Level Washington Center
07:42AM 37.4425 -79.7378 227° Southwest 451 519 34,000  Level Washington Center
07:43AM 37.3481 -79.8714 228° Southwest 457 526 34,000  Level Washington Center
07:44AM 37.2669 -79.9842 228° Southwest 452 520 34,000  Level Washington Center
07:46AM 37.1475 -80.1408 226° Southwest 446 513 34,000  Level Atlanta Center
07:47AM 37.0575 -80.2625 227° Southwest 441 507 34,000  Level Atlanta Center
07:48AM 36.9733 -80.3756 227° Southwest 435 501 34,000  Level Atlanta Center
07:49AM 36.8911 -80.4858 227° Southwest 435 501 34,000  Level Atlanta Center
07:50AM 36.8067 -80.5983 227° Southwest 435 501 34,000  Level Atlanta Center
07:51AM 36.7261 -80.7056 227° Southwest 435 501 34,000  Level Atlanta Center
07:52AM 36.6417 -80.8150 226° Southwest 435 501 34,000  Level Atlanta Center
07:53AM 36.5569 -80.9269 227° Southwest 435 501 34,000  Level Atlanta Center
07:54AM 36.4722 -81.0414 227° Southwest 435 501 34,000  Level Atlanta Center
07:55AM 36.3872 -81.1528 227° Southwest 435 501 34,000  Level Atlanta Center
07:56AM 36.3042 -81.2614 227° Southwest 435 501 34,000  Level Atlanta Center
07:57AM 36.2192 -81.3725 227° Southwest 440 506 34,000  Level Atlanta Center
07:58AM 36.1358 -81.4833 227° Southwest 440 506 34,000  Level Atlanta Center
07:59AM 36.0506 -81.5964 227° Southwest 440 506 34,000  Level Atlanta Center
08:00AM 35.9692 -81.6989 226° Southwest 435 501 34,000  Level Atlanta Center
08:01AM 35.8817 -81.8117 226° Southwest 440 506 34,000  Level Atlanta Center
08:02AM 35.7981 -81.9164 225° Southwest 435 501 34,000 -660 Level Atlanta Center
08:03AM 35.7164 -82.0233 227° Southwest 430 495 32,700 -1,500 Descending Atlanta Center
08:04AM 35.6386 -82.1222 226° Southwest 435 501 31,000 -1,380 Descending Atlanta Center
08:05AM 35.5506 -82.2317 225° Southwest 441 507 30,000 -960 Descending Atlanta Center
08:06AM 35.4667 -82.3406 227° Southwest 446 513 29,100 -1,080 Descending Atlanta Center
08:07AM 35.3806 -82.4492 226° Southwest 440 506 27,900 -1,260 Descending Atlanta Center
08:08AM 35.2983 -82.5553 227° Southwest 434 499 26,600 -1,320 Descending Atlanta Center
08:09AM 35.2119 -82.6611 225° Southwest 434 499 25,300 -1,200 Descending Atlanta Center
08:10AM 35.1192 -82.7767 226° Southwest 435 501 24,200 -1,200 Descending Atlanta Center
08:11AM 35.0367 -82.8794 226° Southwest 435 501 23,000 -1,380 Descending Atlanta Center
08:12AM 34.9542 -82.9794 225° Southwest 425 489 21,500 -1,380 Descending Atlanta Center
08:13AM 34.8819 -83.0639 224° Southwest 419 482 20,300 -1,080 Descending Atlanta Center
08:14AM 34.8075 -83.1583 226° Southwest 400 460 19,400 -1,020 Descending Atlanta Center
08:15AM 34.7186 -83.2706 226° Southwest 406 467 18,300 -720 Descending Atlanta Center
08:16AM 34.6397 -83.3494 219° Southwest 412 474 18,000 -180 Descending Atlanta Center
08:17AM 34.5378 -83.4411 217° Southwest 417 480 18,000  Level Atlanta Center
08:18AM 34.4444 -83.5250 217° Southwest 423 487 18,000 -180 Level Atlanta Center
08:19AM 34.3486 -83.6086 216° Southwest 423 487 17,700 -900 Descending Atlanta Center
08:20AM 34.2592 -83.6919 218° Southwest 418 481 16,300 -1,440 Descending Atlanta Center
08:21AM 34.1697 -83.7703 216° Southwest 418 481 14,900 -1,200 Descending Atlanta Center
08:22AM 34.0800 -83.8506 217° Southwest 418 481 13,900 -1,380 Descending Atlanta Center
08:23AM 34.0333 -83.9000 221° Southwest 396 456 12,800 -1,680 Descending Atlanta TRACON
08:24AM 33.9667 -84.0000 231° Southwest 378 435 11,300 -960 Descending Atlanta TRACON
08:24AM 33.9000 -84.0833 226° Southwest 374 430 11,000 -180 Descending Atlanta TRACON
08:25AM 33.8333 -84.1833 231° Southwest 375 432 11,000  Level Atlanta TRACON
08:26AM 33.7833 -84.2833 239° Southwest 318 366 11,000 -300 Level Atlanta TRACON
08:27AM 33.7333 -84.3500 228° Southwest 241 277 10,400 -1,440 Descending Atlanta TRACON
08:28AM 33.7333 -84.4167 270° West 240 276 8,300 -1,740 Descending Atlanta TRACON
08:29AM 33.7333 -84.4833 270° West 232 267 7,100 -1,380 Descending Atlanta TRACON
08:30AM 33.7333 -84.5667 270° West 218 251 5,700 -1,320 Descending Atlanta TRACON
08:31AM 33.7333 -84.6333 270° West 221 254 4,600 -900 Descending Atlanta TRACON
08:32AM 33.7167 -84.7000 253° West 222 255 4,000 -360 Descending Atlanta TRACON
08:33AM 33.6667 -84.6833 164° South 188 216 4,000  Level Atlanta TRACON
08:34AM 33.6500 -84.6333 112° Southeast 178 205 4,000 -300 Level Atlanta TRACON
08:35AM 33.6500 -84.5833 90° East 177 204 3,400 -780 Descending Atlanta TRACON
08:36AM 33.6500 -84.5333 90° East 155 178 2,600 -900 Descending Atlanta TRACON